Archival Weather

Snohomish County (Paine Fld)

Everett, Washington (KPAE)

Report from: Thursday, November 2, 2023 7:51 AM PDT
Current time: Monday, June 17, 2024 12:29 AM PDT

Current weather – Weather history – Daily summaries
Weather forecast

Present weatherMist
Temperature12.0°C (53.6°F)
Dew point12.0°C (53.6°F)
Winds 10 kts (5.1 m/s, 11.5 mph) South-Southeast (160°)
Visibility3960 ft. (1.2 km)
Clouds Ceiling: Broken clouds 200 ft. (61 m)
Overcast 7,500 ft. (2,286 m)
Altimeter29.70 in.Hg (1006 mB)
Precipitiation0.05 in. (1 mm)
Precip. events Rain ended 2:44 PM
Relative humidity100 %
Density altitude94 ft. (29 m)
Remarks Automated weather observing station with precipitation discriminator
Flight conditions Low Instrument Meteorological Conditions
Raw dataKPAE 021451Z 16010KT 3/4SM R16R/P6000FT BR BKN002 OVC075 12/12 A2970 RMK AO2 RAE44 P0005
An error has occurred. This application may no longer respond until reloaded. Reload 🗙